createdAt,value
2019-03-05T00:00:49.585Z,0.87
2019-03-05T00:03:18.393Z,0.97
2019-03-05T00:05:47.202Z,0.60
2019-03-05T00:08:15.623Z,0.80
2019-03-05T00:10:44.147Z,1.10
2019-03-05T00:13:12.939Z,1.23
2019-03-05T00:15:41.918Z,0.80
2019-03-05T00:18:10.706Z,0.87
2019-03-05T00:20:39.124Z,0.87
2019-03-05T00:23:08.456Z,0.70
2019-03-05T00:25:38.903Z,0.90
2019-03-05T00:28:28.600Z,1.00
2019-03-05T00:31:00.550Z,0.90
2019-03-05T00:33:34.582Z,0.90
2019-03-05T00:36:11.690Z,0.63
2019-03-05T00:38:45.708Z,0.80
2019-03-05T00:41:29.240Z,0.90
2019-03-05T00:44:11.548Z,1.30
2019-03-05T00:47:05.984Z,1.00
2019-03-05T00:49:46.185Z,0.90
2019-03-05T00:52:17.678Z,0.90
2019-03-05T00:54:54.772Z,0.83
2019-03-05T00:57:32.170Z,1.00
2019-03-05T01:00:06.586Z,0.97
2019-03-05T01:02:44.178Z,1.00
2019-03-05T01:05:18.701Z,0.93
2019-03-05T01:07:47.125Z,0.80
2019-03-05T01:10:16.510Z,1.13
2019-03-05T01:12:45.013Z,1.03
2019-03-05T01:15:14.705Z,1.07
2019-03-05T01:17:43.162Z,0.67
2019-03-05T01:20:13.317Z,0.77
2019-03-05T01:22:41.767Z,0.87
2019-03-05T01:25:30.875Z,0.70
2019-03-05T01:27:59.297Z,1.20
2019-03-05T01:30:49.201Z,1.20
2019-03-05T01:33:19.187Z,1.00
2019-03-05T01:35:55.382Z,1.03
2019-03-05T01:38:23.813Z,0.80
2019-03-05T01:40:53.904Z,0.70
2019-03-05T01:43:22.312Z,0.87
2019-03-05T01:45:51.102Z,0.80
2019-03-05T01:48:19.873Z,0.80
2019-03-05T01:50:48.304Z,1.07
2019-03-05T01:53:16.768Z,1.07
2019-03-05T01:55:45.216Z,1.00
2019-03-05T01:58:13.997Z,1.03
2019-03-05T02:00:42.498Z,1.03
2019-03-05T02:03:10.980Z,0.77
2019-03-05T02:05:39.405Z,0.97
2019-03-05T02:08:07.850Z,1.00
2019-03-05T02:10:36.260Z,0.90
2019-03-05T02:13:04.717Z,1.10
2019-03-05T02:15:33.462Z,0.90
2019-03-05T02:18:01.901Z,0.60
2019-03-05T02:20:30.418Z,0.97
2019-03-05T02:23:07.868Z,0.93
2019-03-05T02:25:44.889Z,1.30
2019-03-05T02:28:40.302Z,1.00
2019-03-05T02:31:11.849Z,0.97
2019-03-05T02:33:48.856Z,1.17
2019-03-05T02:36:32.141Z,1.03
2019-03-05T02:39:09.861Z,1.10
2019-03-05T02:41:41.414Z,0.70
2019-03-05T02:44:30.955Z,0.77
2019-03-05T02:47:11.183Z,1.20
2019-03-05T02:50:15.726Z,1.13
2019-03-05T02:52:56.034Z,0.70
2019-03-05T02:55:36.221Z,0.80
2019-03-05T02:58:03.590Z,0.70
2019-03-05T03:01:02.218Z,0.83
2019-03-05T03:03:38.286Z,1.07
2019-03-05T03:06:08.354Z,1.00
2019-03-05T03:08:37.274Z,0.70
2019-03-05T03:11:05.789Z,0.80
2019-03-05T03:13:34.305Z,1.03
2019-03-05T03:16:02.742Z,1.00
2019-03-05T03:18:31.192Z,1.03
2019-03-05T03:20:59.615Z,1.10
2019-03-05T03:23:28.352Z,1.03
2019-03-05T03:25:57.172Z,0.80
2019-03-05T03:28:25.603Z,1.47
2019-03-05T03:30:54.038Z,0.90
2019-03-05T03:33:22.587Z,1.00
2019-03-05T03:35:51.070Z,1.00
2019-03-05T03:38:19.519Z,1.10
2019-03-05T03:40:48.222Z,0.80
2019-03-05T03:43:17.060Z,0.73
2019-03-05T03:45:45.499Z,1.00
2019-03-05T03:48:13.941Z,1.00
2019-03-05T03:50:42.421Z,1.10
2019-03-05T03:53:17.034Z,1.10
2019-03-05T03:55:45.451Z,1.10
2019-03-05T03:58:13.923Z,1.20
2019-03-05T04:00:42.358Z,1.20
2019-03-05T04:03:10.790Z,0.90
2019-03-05T04:05:39.285Z,0.90
2019-03-05T04:08:10.371Z,1.17
2019-03-05T04:10:37.884Z,0.80
2019-03-05T04:13:06.350Z,1.10
2019-03-05T04:15:34.781Z,0.80
2019-03-05T04:18:03.525Z,0.80
2019-03-05T04:20:33.235Z,1.00
2019-03-05T04:23:01.647Z,1.13
2019-03-05T04:25:30.406Z,0.70
2019-03-05T04:27:58.870Z,1.00
2019-03-05T04:30:27.341Z,0.70
2019-03-05T04:32:56.127Z,1.13
2019-03-05T04:35:25.052Z,0.63
2019-03-05T04:37:53.461Z,1.10
2019-03-05T04:40:21.908Z,1.00
2019-03-05T04:42:50.666Z,1.07
2019-03-05T04:45:28.670Z,0.73
2019-03-05T04:47:57.094Z,0.77
2019-03-05T04:50:43.162Z,1.23
2019-03-05T04:53:11.930Z,1.03
2019-03-05T04:55:40.729Z,0.90
2019-03-05T04:58:09.153Z,0.80
2019-03-05T05:00:37.681Z,0.80
2019-03-05T05:03:06.106Z,0.70
2019-03-05T05:05:34.559Z,0.57
2019-03-05T05:08:03.310Z,0.83
2019-03-05T05:10:31.747Z,0.73
2019-03-05T05:13:00.173Z,0.80
2019-03-05T05:15:33.569Z,0.90
2019-03-05T05:18:01.988Z,0.60
2019-03-05T05:20:30.502Z,0.90
2019-03-05T05:22:58.947Z,1.27
2019-03-05T05:25:27.398Z,1.07
2019-03-05T05:27:55.840Z,0.80
2019-03-05T05:30:32.724Z,0.77
2019-03-05T05:33:01.159Z,0.90
2019-03-05T05:35:29.690Z,1.03
2019-03-05T05:37:58.495Z,1.10
2019-03-05T05:40:44.366Z,0.80
2019-03-05T05:43:15.532Z,0.87
2019-03-05T05:45:51.954Z,1.17
2019-03-05T05:48:20.549Z,0.90
2019-03-05T05:50:49.074Z,0.60
2019-03-05T05:53:17.829Z,0.80
2019-03-05T05:55:46.266Z,0.60
2019-03-05T05:58:14.993Z,0.73
2019-03-05T06:00:45.413Z,0.80
2019-03-05T06:03:13.830Z,0.77
2019-03-05T06:05:42.699Z,0.73
2019-03-05T06:08:11.130Z,0.60
2019-03-05T06:10:39.582Z,0.83
2019-03-05T06:13:08.009Z,0.70
2019-03-05T06:15:36.588Z,0.80
2019-03-05T06:18:05.030Z,0.80
2019-03-05T06:20:33.473Z,0.60
2019-03-05T06:23:02.261Z,0.50
2019-03-05T06:25:31.053Z,0.60
2019-03-05T06:27:59.831Z,0.60
2019-03-05T06:30:33.929Z,0.53
2019-03-05T06:33:02.430Z,1.07
2019-03-05T06:35:30.934Z,0.80
2019-03-05T06:37:59.682Z,0.90
2019-03-05T06:40:30.269Z,0.60
2019-03-05T06:42:58.720Z,0.90
2019-03-05T06:45:27.482Z,0.60
2019-03-05T06:47:56.266Z,0.60
2019-03-05T06:50:26.547Z,0.80
2019-03-05T06:52:55.369Z,0.53
2019-03-05T06:55:23.867Z,0.60
2019-03-05T06:57:52.378Z,1.10
2019-03-05T07:00:34.033Z,0.80
2019-03-05T07:03:03.912Z,0.60
2019-03-05T07:06:08.756Z,0.70
2019-03-05T07:08:39.562Z,0.90
2019-03-05T07:11:23.138Z,0.80
2019-03-05T07:13:54.180Z,0.60
2019-03-05T07:16:28.467Z,0.70
2019-03-05T07:18:58.550Z,1.03
2019-03-05T07:21:55.598Z,0.70
2019-03-05T07:24:44.465Z,0.80
2019-03-05T07:27:14.646Z,0.80
2019-03-05T07:29:45.131Z,0.60
2019-03-05T07:32:13.836Z,0.70
2019-03-05T07:34:46.862Z,0.60
2019-03-05T07:37:15.302Z,0.60
2019-03-05T07:39:44.083Z,0.60
2019-03-05T07:42:12.893Z,1.07
2019-03-05T07:44:41.338Z,0.73
2019-03-05T07:47:09.803Z,0.97
2019-03-05T07:49:43.876Z,0.70
2019-03-05T07:52:08.740Z,0.70
2019-03-05T07:54:37.194Z,0.70
2019-03-05T07:57:05.644Z,0.73
2019-03-05T07:59:34.388Z,0.80
2019-03-05T08:02:03.599Z,0.80
2019-03-05T08:04:32.024Z,0.70
2019-03-05T08:07:00.858Z,0.40
2019-03-05T08:09:33.935Z,0.70
2019-03-05T08:12:32.578Z,0.63
2019-03-05T08:15:09.782Z,0.80
2019-03-05T08:17:38.188Z,0.60
2019-03-05T08:20:09.677Z,0.73
2019-03-05T08:22:38.402Z,0.80
2019-03-05T08:25:10.014Z,0.53
2019-03-05T08:27:38.426Z,0.70
2019-03-05T08:30:14.301Z,0.70
2019-03-05T08:32:40.122Z,0.70
2019-03-05T08:35:10.280Z,0.40
2019-03-05T08:37:38.712Z,0.80
2019-03-05T08:40:12.884Z,0.60
2019-03-05T08:42:41.321Z,0.60
2019-03-05T08:45:14.791Z,0.70
2019-03-05T08:47:43.306Z,0.70
2019-03-05T08:50:15.775Z,0.70
2019-03-05T08:52:44.234Z,0.77
2019-03-05T08:55:13.301Z,0.80
2019-03-05T08:57:41.736Z,0.70
2019-03-05T09:00:18.313Z,0.80
2019-03-05T09:02:49.047Z,0.40
2019-03-05T09:05:18.865Z,0.73
2019-03-05T09:07:48.233Z,0.40
2019-03-05T09:10:22.658Z,0.63
2019-03-05T09:12:51.118Z,0.40
2019-03-05T09:15:20.345Z,0.67
2019-03-05T09:17:49.209Z,0.60
2019-03-05T09:20:19.779Z,0.90
2019-03-05T09:22:48.210Z,0.70
2019-03-05T09:25:17.792Z,0.87
2019-03-05T09:27:46.508Z,0.80
2019-03-05T09:30:22.488Z,0.90
2019-03-05T09:32:51.254Z,0.90
2019-03-05T09:35:20.254Z,0.60
2019-03-05T09:37:48.668Z,0.93
2019-03-05T09:40:23.441Z,0.87
2019-03-05T09:42:52.558Z,0.80
2019-03-05T09:45:21.606Z,0.90
2019-03-05T09:47:50.027Z,0.80
2019-03-05T09:50:19.323Z,0.90
2019-03-05T09:52:54.855Z,1.30
2019-03-05T09:55:21.392Z,0.80
2019-03-05T09:58:06.962Z,0.70
2019-03-05T10:00:26.982Z,0.93
2019-03-05T10:02:55.468Z,0.80
2019-03-05T10:05:24.322Z,0.80
2019-03-05T10:07:53.123Z,0.97
2019-03-05T10:10:26.981Z,0.67
2019-03-05T10:12:59.304Z,0.73
2019-03-05T10:15:27.654Z,0.83
2019-03-05T10:17:56.253Z,0.90
2019-03-05T10:20:33.316Z,0.80
2019-03-05T10:23:02.546Z,1.00
2019-03-05T10:25:31.059Z,0.53
2019-03-05T10:28:00.531Z,0.93
2019-03-05T10:30:31.298Z,0.53
2019-03-05T10:33:02.678Z,0.73
2019-03-05T10:35:31.125Z,0.80
2019-03-05T10:38:01.208Z,1.17
2019-03-05T10:40:39.501Z,1.40
2019-03-05T10:43:09.673Z,1.13
2019-03-05T10:45:40.532Z,0.90
2019-03-05T10:48:08.964Z,0.80
2019-03-05T10:50:37.389Z,1.00
2019-03-05T10:53:06.082Z,1.00
2019-03-05T10:55:35.004Z,0.93
2019-03-05T10:58:03.447Z,0.73
2019-03-05T11:00:37.557Z,1.00
2019-03-05T11:03:06.025Z,0.70
2019-03-05T11:05:37.143Z,0.87
2019-03-05T11:08:06.084Z,1.30
2019-03-05T11:10:34.549Z,0.70
2019-03-05T11:13:03.106Z,0.80
2019-03-05T11:15:35.991Z,1.00
2019-03-05T11:18:07.328Z,1.00
2019-03-05T11:20:36.336Z,0.90
2019-03-05T11:23:06.171Z,1.00
2019-03-05T11:25:34.610Z,0.73
2019-03-05T11:28:03.023Z,1.27
2019-03-05T11:30:36.320Z,0.80
2019-03-05T11:33:04.798Z,0.87
2019-03-05T11:35:34.587Z,0.90
2019-03-05T11:38:03.337Z,1.03
2019-03-05T11:40:31.894Z,0.80
2019-03-05T11:43:09.383Z,0.90
2019-03-05T11:45:38.676Z,0.73
2019-03-05T11:48:07.637Z,0.60
2019-03-05T11:50:36.074Z,0.80
2019-03-05T11:53:04.984Z,0.80
2019-03-05T11:55:33.419Z,0.80
2019-03-05T11:58:01.866Z,1.00
2019-03-05T12:00:49.523Z,0.80
2019-03-05T12:03:24.349Z,0.60
2019-03-05T12:05:52.810Z,0.73
2019-03-05T12:08:21.235Z,0.63
2019-03-05T12:10:49.982Z,0.70
2019-03-05T12:13:19.143Z,0.70
2019-03-05T12:15:47.858Z,0.97
2019-03-05T12:18:16.318Z,0.67
2019-03-05T12:20:44.857Z,0.73
2019-03-05T12:23:13.345Z,0.73
2019-03-05T12:25:41.795Z,1.00
2019-03-05T12:28:11.177Z,0.70
2019-03-05T12:30:40.468Z,0.90
2019-03-05T12:33:09.204Z,1.10
2019-03-05T12:35:37.774Z,0.90
2019-03-05T12:38:06.262Z,1.00
2019-03-05T12:40:34.717Z,0.80
2019-03-05T12:43:03.601Z,0.80
2019-03-05T12:45:32.037Z,0.90
2019-03-05T12:48:00.493Z,0.97
2019-03-05T12:50:36.210Z,0.90
2019-03-05T12:53:05.544Z,0.70
2019-03-05T12:55:34.043Z,0.93
2019-03-05T12:58:02.773Z,0.90
2019-03-05T13:00:35.570Z,0.70
2019-03-05T13:03:05.259Z,1.00
2019-03-05T13:05:33.678Z,1.13
2019-03-05T13:08:02.526Z,1.00
2019-03-05T13:10:37.432Z,0.80
2019-03-05T13:13:05.677Z,0.97
2019-03-05T13:15:40.856Z,0.80
2019-03-05T13:18:09.667Z,0.63
2019-03-05T13:20:38.092Z,0.80
2019-03-05T13:23:09.319Z,0.90
2019-03-05T13:25:38.291Z,1.10
2019-03-05T13:28:07.243Z,0.77
2019-03-05T13:30:35.672Z,0.83
2019-03-05T13:33:04.170Z,0.83
2019-03-05T13:35:32.963Z,0.93
2019-03-05T13:38:09.749Z,0.73
2019-03-05T13:40:40.307Z,0.87
2019-03-05T13:43:08.621Z,0.80
2019-03-05T13:45:37.372Z,0.87
2019-03-05T13:48:28.502Z,0.70
2019-03-05T13:51:12.071Z,0.80
2019-03-05T13:54:05.608Z,0.90
2019-03-05T13:56:49.533Z,0.93
2019-03-05T13:59:44.864Z,0.70
2019-03-05T14:02:16.503Z,0.97
2019-03-05T14:04:50.642Z,0.77
2019-03-05T14:07:40.841Z,1.07
2019-03-05T14:10:09.404Z,0.87
2019-03-05T14:12:37.927Z,0.80
2019-03-05T14:15:09.569Z,0.90
2019-03-05T14:17:38.858Z,0.80
2019-03-05T14:20:13.448Z,0.80
2019-03-05T14:22:41.915Z,1.10
2019-03-05T14:25:13.180Z,1.00
2019-03-05T14:27:41.989Z,0.83
2019-03-05T14:30:21.030Z,1.00
2019-03-05T14:32:49.289Z,1.13
2019-03-05T14:35:19.268Z,1.17
2019-03-05T14:37:48.306Z,0.80
2019-03-05T14:40:24.551Z,0.90
2019-03-05T14:42:52.729Z,1.00
2019-03-05T14:45:27.079Z,0.90
2019-03-05T14:47:58.066Z,1.00
2019-03-05T14:50:26.865Z,1.00
2019-03-05T14:52:55.350Z,1.07
2019-03-05T14:55:23.993Z,1.00
2019-03-05T14:57:52.415Z,1.13
2019-03-05T15:00:22.098Z,0.90
2019-03-05T15:02:50.804Z,1.10
2019-03-05T15:05:19.647Z,1.30
2019-03-05T15:07:48.133Z,0.93
2019-03-05T15:10:16.696Z,0.80
2019-03-05T15:12:45.194Z,1.10
2019-03-05T15:15:28.050Z,1.10
2019-03-05T15:17:56.619Z,0.93
2019-03-05T15:20:25.215Z,0.60
2019-03-05T15:22:53.800Z,0.60
2019-03-05T15:25:22.596Z,0.53
2019-03-05T15:27:51.956Z,0.50
2019-03-05T15:30:28.747Z,0.50
2019-03-05T15:32:56.585Z,0.80
2019-03-05T15:35:24.988Z,0.70
2019-03-05T15:37:53.382Z,0.70
2019-03-05T15:40:21.910Z,0.40
2019-03-05T15:42:50.551Z,0.60
2019-03-05T15:45:23.213Z,0.83
2019-03-05T15:47:51.893Z,0.67
2019-03-05T15:50:25.642Z,0.50
2019-03-05T15:52:54.501Z,2.20
2019-03-05T15:55:23.375Z,0.80
2019-03-05T15:57:51.774Z,0.50
2019-03-05T16:00:31.417Z,0.43
2019-03-05T16:03:00.958Z,0.50
2019-03-05T16:05:30.053Z,0.50
2019-03-05T16:08:01.713Z,0.70
2019-03-05T16:10:30.164Z,0.70
2019-03-05T16:12:58.570Z,0.70
2019-03-05T16:15:27.986Z,0.50
2019-03-05T16:17:56.413Z,0.60
2019-03-05T16:20:26.090Z,0.60
2019-03-05T16:22:56.720Z,0.50
2019-03-05T16:25:25.392Z,0.50
2019-03-05T16:27:54.147Z,0.60
2019-03-05T16:30:44.946Z,0.80
2019-03-05T16:33:36.961Z,0.60
2019-03-05T16:36:12.938Z,0.50
2019-03-05T16:38:59.647Z,0.40
2019-03-05T16:41:38.574Z,0.37
2019-03-05T16:44:23.843Z,0.33
2019-03-05T16:46:54.206Z,0.50
2019-03-05T16:49:24.602Z,0.40
2019-03-05T16:51:54.676Z,0.50
2019-03-05T16:54:37.032Z,0.50
2019-03-05T16:57:24.130Z,0.63
2019-03-05T17:00:06.054Z,0.50
2019-03-05T17:02:38.206Z,0.40
2019-03-05T17:05:23.514Z,0.50
2019-03-05T17:07:53.641Z,0.63
2019-03-05T17:10:36.318Z,0.50
2019-03-05T17:13:04.742Z,0.63
2019-03-05T17:15:33.188Z,0.53
2019-03-05T17:18:01.635Z,0.50
2019-03-05T17:20:30.035Z,0.40
2019-03-05T17:22:58.437Z,0.57
2019-03-05T17:25:27.017Z,0.60
2019-03-05T17:27:55.444Z,0.60
2019-03-05T17:30:23.850Z,0.50
2019-03-05T17:32:52.736Z,0.67
2019-03-05T17:35:21.263Z,0.63
2019-03-05T17:37:49.685Z,0.80
2019-03-05T17:40:18.452Z,0.50
2019-03-05T17:42:46.837Z,0.50
2019-03-05T17:45:24.144Z,0.53
2019-03-05T17:47:53.173Z,0.60
2019-03-05T17:50:21.582Z,0.70
2019-03-05T17:52:50.377Z,0.60
2019-03-05T17:55:27.062Z,0.60
2019-03-05T17:57:54.731Z,0.60
2019-03-05T18:00:25.249Z,1.23
2019-03-05T18:02:53.628Z,1.20
2019-03-05T18:05:22.031Z,0.70
2019-03-05T18:07:50.457Z,1.20
2019-03-05T18:10:21.231Z,1.30
2019-03-05T18:12:49.630Z,1.90
2019-03-05T18:15:18.113Z,1.37
2019-03-05T18:17:46.510Z,1.00
2019-03-05T18:20:18.307Z,1.00
2019-03-05T18:22:47.198Z,0.80
2019-03-05T18:25:16.729Z,0.67
2019-03-05T18:27:46.081Z,0.70
2019-03-05T18:30:20.218Z,0.70
2019-03-05T18:32:48.987Z,0.80
2019-03-05T18:35:17.779Z,0.67
2019-03-05T18:37:46.283Z,0.50
2019-03-05T18:40:16.885Z,0.70
2019-03-05T18:42:45.689Z,0.80
2019-03-05T18:45:19.782Z,0.80
2019-03-05T18:47:48.185Z,0.80
2019-03-05T18:50:18.984Z,0.80
2019-03-05T18:52:48.939Z,0.77
2019-03-05T18:55:19.740Z,1.00
2019-03-05T18:57:48.430Z,0.60
2019-03-05T19:00:22.097Z,0.57
2019-03-05T19:02:52.226Z,0.60
2019-03-05T19:05:20.693Z,0.90
2019-03-05T19:07:49.119Z,0.67
2019-03-05T19:10:24.544Z,1.00
2019-03-05T19:12:53.025Z,0.80
2019-03-05T19:15:25.985Z,0.90
2019-03-05T19:17:54.561Z,0.93
2019-03-05T19:20:28.196Z,0.83
2019-03-05T19:22:56.977Z,0.80
2019-03-05T19:25:28.468Z,1.07
2019-03-05T19:27:56.916Z,1.00
2019-03-05T19:30:31.624Z,1.00
2019-03-05T19:33:00.324Z,0.80
2019-03-05T19:35:28.770Z,0.87
2019-03-05T19:37:57.282Z,0.90
2019-03-05T19:40:31.398Z,1.00
2019-03-05T19:42:59.835Z,1.20
2019-03-05T19:45:28.336Z,1.30
2019-03-05T19:47:56.784Z,1.43
2019-03-05T19:50:25.202Z,0.90
2019-03-05T19:52:53.694Z,0.90
2019-03-05T19:55:29.185Z,0.80
2019-03-05T19:58:11.096Z,0.83
2019-03-05T20:00:46.302Z,1.40
2019-03-05T20:03:14.770Z,1.47
2019-03-05T20:05:43.281Z,1.73
2019-03-05T20:08:11.865Z,1.93
2019-03-05T20:10:40.310Z,2.20
2019-03-05T20:13:08.770Z,1.70
2019-03-05T20:15:37.194Z,1.70
2019-03-05T20:18:07.389Z,3.63
2019-03-05T20:20:36.172Z,3.93
2019-03-05T20:23:05.345Z,3.43
2019-03-05T20:25:33.859Z,4.50
2019-03-05T20:28:02.300Z,1.63
2019-03-05T20:30:30.909Z,3.10
2019-03-05T20:32:59.395Z,2.53
2019-03-05T20:35:28.176Z,4.40
2019-03-05T20:37:56.950Z,2.50
2019-03-05T20:40:32.496Z,2.13
2019-03-05T20:43:02.796Z,1.80
2019-03-05T20:45:35.998Z,2.33
2019-03-05T20:48:05.383Z,1.90
2019-03-05T20:50:34.284Z,1.53
2019-03-05T20:53:02.734Z,1.70
2019-03-05T20:55:31.174Z,2.13
2019-03-05T20:57:59.765Z,2.20
2019-03-05T21:00:35.595Z,2.17
2019-03-05T21:03:06.842Z,1.90
2019-03-05T21:05:40.863Z,1.97
2019-03-05T21:08:11.707Z,1.97
2019-03-05T21:10:40.202Z,2.50
2019-03-05T21:13:09.177Z,2.77
2019-03-05T21:15:37.950Z,1.53
2019-03-05T21:18:11.992Z,1.50
2019-03-05T21:21:01.798Z,1.70
2019-03-05T21:23:30.261Z,2.00
2019-03-05T21:25:58.736Z,2.03
2019-03-05T21:28:27.672Z,1.80
2019-03-05T21:30:56.470Z,1.90
2019-03-05T21:33:25.299Z,2.17
2019-03-05T21:35:54.049Z,2.67
2019-03-05T21:38:22.518Z,1.90
2019-03-05T21:40:51.350Z,1.80
2019-03-05T21:43:19.794Z,2.50
2019-03-05T21:45:51.810Z,2.50
2019-03-05T21:48:21.238Z,2.67
2019-03-05T21:50:50.034Z,2.47
2019-03-05T21:53:18.507Z,2.90
2019-03-05T21:55:47.369Z,2.60
2019-03-05T21:58:16.186Z,2.87
2019-03-05T22:00:44.655Z,2.70
2019-03-05T22:03:13.214Z,2.83
2019-03-05T22:05:42.031Z,2.77
2019-03-05T22:08:10.473Z,2.53
2019-03-05T22:10:39.307Z,2.50
2019-03-05T22:13:07.753Z,3.60
2019-03-05T22:15:37.607Z,4.10
2019-03-05T22:18:06.117Z,4.67
2019-03-05T22:20:34.549Z,4.33
2019-03-05T22:23:02.991Z,3.97
2019-03-05T22:25:31.442Z,4.07
2019-03-05T22:28:00.209Z,5.17
2019-03-05T22:30:34.108Z,4.63
2019-03-05T22:33:02.531Z,3.73
2019-03-05T22:35:31.478Z,3.07
2019-03-05T22:38:00.379Z,3.40
2019-03-05T22:40:30.273Z,3.10
2019-03-05T22:42:58.710Z,2.70
2019-03-05T22:45:31.890Z,3.23
2019-03-05T22:48:00.308Z,3.33
2019-03-05T22:50:28.762Z,4.33
2019-03-05T22:52:57.601Z,5.10
2019-03-05T22:55:26.128Z,4.50
2019-03-05T22:57:54.972Z,3.97
2019-03-05T23:00:42.757Z,4.43
2019-03-05T23:03:14.962Z,4.20
2019-03-05T23:05:43.761Z,3.63
2019-03-05T23:08:12.186Z,3.80
2019-03-05T23:10:40.721Z,4.40
2019-03-05T23:13:09.422Z,3.57
2019-03-05T23:15:37.960Z,3.63
2019-03-05T23:18:06.764Z,4.10
2019-03-05T23:20:35.189Z,4.40
2019-03-05T23:23:04.029Z,4.03
2019-03-05T23:25:32.501Z,3.70
2019-03-05T23:28:00.950Z,3.73
2019-03-05T23:30:29.526Z,4.13
2019-03-05T23:32:57.978Z,4.30
2019-03-05T23:35:26.733Z,4.30
2019-03-05T23:37:55.185Z,3.80
2019-03-05T23:40:23.619Z,4.30
2019-03-05T23:42:52.084Z,3.70
2019-03-05T23:45:21.095Z,3.17
2019-03-05T23:47:49.599Z,3.20
2019-03-05T23:50:18.732Z,3.27
2019-03-05T23:52:47.208Z,3.43
2019-03-05T23:55:16.333Z,2.90
2019-03-05T23:57:45.043Z,3.60
